KAXH

Details ICAO KAXH
Name HOUSTON SOUTHWEST
Region United States
Timezone America/Chicago (UTC-6.0)
Plans Departing 9
Arriving 16
Stats Elevation 68 ft / 21 m (AMSL)
Location 29.506135° -95.476911°
Runways 1
Magnetic Variation 2.560° E
Sunrise 2017-12-13 13:09:27 UTC / 2017-12-13 07:09:27 Local
Sunset 2017-12-13 23:25:51 UTC / 2017-12-13 17:25:51 Local
Advertisement - Login to hide

Runways

ID Width Length Bearing (true) Bearing (mag) Surface Threshold Offset Overrun Length
09 100 ft / 30 m 4,995 ft / 1,522 m 94.24° 91.68° Asphalt 0 ft / 0 m 0 ft / 0 m
27 100 ft / 30 m 4,995 ft / 1,522 m 274.25° 271.69° Asphalt 0 ft / 0 m 0 ft / 0 m

Map

Weather


0- 5 10 15 20 25 30 35+ Temperature / ° C

Clouds and Precipitation
Forecast for 2017-12-14 00:00 UTC. Updated 2 hours ago

Ground ~20,000 ft ~40,000 ft Winds

METAR

KAXH 132055Z AUTO 00000KT 10SM CLR 14/00 A3007 RMK AO2 T01430002

TAF

Not found

Frequencies

Unicom 123.00 MHz CTAF/UNICOM
Approach 123.80 MHz HOUSTON APP/DEP
Clearance 120.80 MHz CLNC DEL
Warning: Do not use this data for real-world aviation or navigation. No guarantee of current accuracy is given.